Share

La Serena, Chile

La Florida (SCSE) Elev 479 ft | 29.92 °S, 71.20 °W | Change Station

Current weather conditions updated 55 minutes ago

Fog
Fog
50 °F
Feels Like 50 °F
N
0
Wind Variable Wind from North
Sunrise 7:07 AM
Sunset 6:19 PM
Moon Waning Gibbous

Today is forecast to be Much Warmer than yesterday.

Pressure 29.95 in
Visibility 0.1 miles
Clouds
Dew Point 50 °F
Humidity 100%
Rainfall 0.00 in
Snow Depth Not available.
UV Not available.
Pollen Not available.
Air Quality Not available.
Flu Activity Not available.
METAR SCSE 211100Z 00000KT 0100 FG VV001 10/10 Q1014

More Conditions Fewer Conditions

Pressure 29.95 in
Visibility 0.1 miles
Clouds
Dew Point 50 °F
Humidity 100%
Rainfall 0.00 in
Snow Depth Not available.
UV Not available.
Pollen Not available.
Air Quality Not available.
Flu Activity Not available.
METAR SCSE 211100Z 00000KT 0100 FG VV001 10/10 Q1014

More Conditions Fewer Conditions

10-Day Weather Forecast

Almanac

Astronomy

Apr. 21, 2014 Rise Set
Actual Time 7:07 AM CLT 6:19 PM CLT
Civil Twilight 6:43 AM CLT 6:43 PM CLT
Nautical Twilight 6:15 AM CLT 7:11 PM CLT
Astronomical Twilight 5:47 AM CLT 7:39 PM CLT
Moon No Moon Rise 1:00 PM CLT
Length of Visible Light 12h 00m
Length of Day
11h 11m
Tomorrow will be 1m 37s shorter.
Waning Gibbous, 60% of the Moon is Illuminated
Today
Waning Gibbous
Apr 22
Last Quarter
Apr 29
New
May 6
First Quarter
May 14
Full

Yesterday's Extremes

Country Highs Country Lows

Community

  • Snowy Robin
    Snowy Robin
  • Sun Pillar and Geese
    Sun Pillar and Geese
  • Showers on the Way
    Showers on the Way
  • Easter Morning Fog
    Easter Morning Fog
  • Easter Dance
    Easter Dance

WunderPhotos

Upload Photos

1,703,595 photos uploaded!

Nearby

Snow Depth

Not available.

Coastal Water Temperatures

Place Temperature
No Stations Reporting

Earthquake Activity

City Distance Mag. Time & Date
No recent earthquake activity has been reported nearby.
Minimum magnitude displayed is 2.5.

Nearby Weather Stations

There are no personal weather stations in this area.

What do you think?

We're not finished. Please let us know what you like, what you don't like, and what you are still missing.